sensor_id;sensor_type;location;lat;lon;timestamp;P1;durP1;ratioP1;P2;durP2;ratioP2
42886;SDS011;29032;56.028;92.904;2023-12-14T00:03:59;11.30;;;5.30;;
42886;SDS011;29032;56.028;92.904;2023-12-14T00:09:03;12.77;;;6.20;;
42886;SDS011;29032;56.028;92.904;2023-12-14T00:14:05;15.83;;;5.93;;
42886;SDS011;29032;56.028;92.904;2023-12-14T00:19:07;13.67;;;6.53;;
42886;SDS011;29032;56.028;92.904;2023-12-14T00:24:11;12.27;;;5.87;;
42886;SDS011;29032;56.028;92.904;2023-12-14T00:29:13;10.60;;;6.13;;
42886;SDS011;29032;56.028;92.904;2023-12-14T00:34:15;10.90;;;5.60;;
42886;SDS011;29032;56.028;92.904;2023-12-14T00:39:19;13.83;;;6.07;;
42886;SDS011;29032;56.028;92.904;2023-12-14T00:44:21;9.90;;;5.03;;
42886;SDS011;29032;56.028;92.904;2023-12-14T00:49:24;12.60;;;5.63;;
42886;SDS011;29032;56.028;92.904;2023-12-14T00:54:27;13.30;;;5.47;;
42886;SDS011;29032;56.028;92.904;2023-12-14T00:59:30;13.20;;;6.07;;
42886;SDS011;29032;56.028;92.904;2023-12-14T01:04:32;11.90;;;5.50;;
42886;SDS011;29032;56.028;92.904;2023-12-14T01:09:36;14.80;;;6.30;;
42886;SDS011;29032;56.028;92.904;2023-12-14T01:14:38;13.00;;;5.80;;
42886;SDS011;29032;56.028;92.904;2023-12-14T01:19:40;7.67;;;5.20;;
42886;SDS011;29032;56.028;92.904;2023-12-14T01:24:44;11.43;;;4.93;;
42886;SDS011;29032;56.028;92.904;2023-12-14T01:29:46;9.53;;;4.70;;
42886;SDS011;29032;56.028;92.904;2023-12-14T01:34:48;12.23;;;5.07;;
42886;SDS011;29032;56.028;92.904;2023-12-14T01:39:52;13.37;;;6.17;;
42886;SDS011;29032;56.028;92.904;2023-12-14T01:44:54;12.37;;;6.40;;
42886;SDS011;29032;56.028;92.904;2023-12-14T01:49:56;12.20;;;5.20;;
42886;SDS011;29032;56.028;92.904;2023-12-14T01:55:00;12.87;;;5.23;;
42886;SDS011;29032;56.028;92.904;2023-12-14T02:00:02;12.13;;;5.13;;
42886;SDS011;29032;56.028;92.904;2023-12-14T02:05:06;11.50;;;5.50;;
42886;SDS011;29032;56.028;92.904;2023-12-14T02:10:10;9.80;;;5.30;;
42886;SDS011;29032;56.028;92.904;2023-12-14T02:15:12;14.77;;;5.90;;
42886;SDS011;29032;56.028;92.904;2023-12-14T02:20:14;11.87;;;5.20;;
42886;SDS011;29032;56.028;92.904;2023-12-14T02:25:18;8.80;;;5.00;;
42886;SDS011;29032;56.028;92.904;2023-12-14T02:30:21;11.87;;;5.07;;
42886;SDS011;29032;56.028;92.904;2023-12-14T02:35:23;8.93;;;5.00;;
42886;SDS011;29032;56.028;92.904;2023-12-14T02:40:27;12.17;;;5.60;;
42886;SDS011;29032;56.028;92.904;2023-12-14T02:45:29;10.80;;;4.70;;
42886;SDS011;29032;56.028;92.904;2023-12-14T02:50:31;10.50;;;5.27;;
42886;SDS011;29032;56.028;92.904;2023-12-14T02:55:35;11.63;;;4.87;;
42886;SDS011;29032;56.028;92.904;2023-12-14T03:00:37;10.00;;;4.53;;
42886;SDS011;29032;56.028;92.904;2023-12-14T03:05:39;9.07;;;4.37;;
42886;SDS011;29032;56.028;92.904;2023-12-14T03:10:43;16.17;;;5.63;;
42886;SDS011;29032;56.028;92.904;2023-12-14T03:15:45;11.87;;;5.20;;
42886;SDS011;29032;56.028;92.904;2023-12-14T03:20:47;12.60;;;5.30;;
42886;SDS011;29032;56.028;92.904;2023-12-14T03:25:51;13.10;;;4.83;;
42886;SDS011;29032;56.028;92.904;2023-12-14T03:30:53;9.63;;;5.07;;
42886;SDS011;29032;56.028;92.904;2023-12-14T03:35:56;7.10;;;3.93;;
42886;SDS011;29032;56.028;92.904;2023-12-14T03:40:59;12.07;;;5.13;;
42886;SDS011;29032;56.028;92.904;2023-12-14T03:46:02;9.23;;;4.47;;
42886;SDS011;29032;56.028;92.904;2023-12-14T03:51:04;9.17;;;4.73;;
42886;SDS011;29032;56.028;92.904;2023-12-14T03:56:09;11.40;;;5.00;;
42886;SDS011;29032;56.028;92.904;2023-12-14T04:01:15;11.07;;;5.47;;
42886;SDS011;29032;56.028;92.904;2023-12-14T04:06:18;12.70;;;5.30;;
42886;SDS011;29032;56.028;92.904;2023-12-14T04:11:22;14.17;;;6.70;;
42886;SDS011;29032;56.028;92.904;2023-12-14T04:16:24;7.83;;;4.53;;
42886;SDS011;29032;56.028;92.904;2023-12-14T04:21:27;11.27;;;4.87;;
42886;SDS011;29032;56.028;92.904;2023-12-14T04:26:30;8.17;;;4.10;;
42886;SDS011;29032;56.028;92.904;2023-12-14T04:31:33;12.73;;;4.87;;
42886;SDS011;29032;56.028;92.904;2023-12-14T04:36:36;10.73;;;4.30;;
42886;SDS011;29032;56.028;92.904;2023-12-14T04:41:40;12.67;;;6.03;;
42886;SDS011;29032;56.028;92.904;2023-12-14T04:46:42;25.07;;;8.73;;
42886;SDS011;29032;56.028;92.904;2023-12-14T04:51:44;16.63;;;7.03;;
42886;SDS011;29032;56.028;92.904;2023-12-14T04:56:48;10.23;;;5.00;;
42886;SDS011;29032;56.028;92.904;2023-12-14T05:01:50;11.40;;;5.33;;
42886;SDS011;29032;56.028;92.904;2023-12-14T05:06:52;12.83;;;5.43;;
42886;SDS011;29032;56.028;92.904;2023-12-14T05:11:56;12.67;;;5.53;;
42886;SDS011;29032;56.028;92.904;2023-12-14T05:16:58;9.83;;;4.60;;
42886;SDS011;29032;56.028;92.904;2023-12-14T05:22:00;8.13;;;3.80;;
42886;SDS011;29032;56.028;92.904;2023-12-14T05:27:04;5.03;;;3.40;;
42886;SDS011;29032;56.028;92.904;2023-12-14T05:32:06;8.37;;;4.53;;
42886;SDS011;29032;56.028;92.904;2023-12-14T05:37:08;10.63;;;4.80;;
42886;SDS011;29032;56.028;92.904;2023-12-14T05:42:12;11.40;;;4.50;;
42886;SDS011;29032;56.028;92.904;2023-12-14T05:47:17;11.20;;;5.83;;
42886;SDS011;29032;56.028;92.904;2023-12-14T05:52:20;13.63;;;5.37;;
42886;SDS011;29032;56.028;92.904;2023-12-14T05:57:23;7.33;;;4.07;;
42886;SDS011;29032;56.028;92.904;2023-12-14T06:02:26;7.30;;;3.83;;
42886;SDS011;29032;56.028;92.904;2023-12-14T06:07:28;6.70;;;3.70;;
42886;SDS011;29032;56.028;92.904;2023-12-14T06:12:31;7.37;;;4.10;;
42886;SDS011;29032;56.028;92.904;2023-12-14T06:17:34;5.90;;;4.13;;
42886;SDS011;29032;56.028;92.904;2023-12-14T06:22:36;8.03;;;4.37;;
42886;SDS011;29032;56.028;92.904;2023-12-14T06:27:40;11.40;;;4.53;;
42886;SDS011;29032;56.028;92.904;2023-12-14T06:32:43;11.37;;;5.00;;
42886;SDS011;29032;56.028;92.904;2023-12-14T06:37:45;14.17;;;3.80;;
42886;SDS011;29032;56.028;92.904;2023-12-14T06:42:49;9.83;;;4.10;;
42886;SDS011;29032;56.028;92.904;2023-12-14T06:47:51;11.23;;;4.87;;
42886;SDS011;29032;56.028;92.904;2023-12-14T06:52:53;10.93;;;5.00;;
42886;SDS011;29032;56.028;92.904;2023-12-14T06:58:00;10.13;;;4.60;;
42886;SDS011;29032;56.028;92.904;2023-12-14T07:03:02;11.13;;;5.00;;
42886;SDS011;29032;56.028;92.904;2023-12-14T07:08:04;9.00;;;4.27;;
42886;SDS011;29032;56.028;92.904;2023-12-14T07:13:08;10.23;;;4.93;;
42886;SDS011;29032;56.028;92.904;2023-12-14T07:18:10;8.23;;;4.30;;
42886;SDS011;29032;56.028;92.904;2023-12-14T07:23:13;11.70;;;4.20;;
42886;SDS011;29032;56.028;92.904;2023-12-14T07:28:16;7.63;;;3.53;;
42886;SDS011;29032;56.028;92.904;2023-12-14T07:33:18;11.30;;;3.80;;
42886;SDS011;29032;56.028;92.904;2023-12-14T07:38:21;8.57;;;4.67;;
42886;SDS011;29032;56.028;92.904;2023-12-14T07:43:24;8.53;;;3.97;;
42886;SDS011;29032;56.028;92.904;2023-12-14T07:48:27;7.70;;;4.20;;
42886;SDS011;29032;56.028;92.904;2023-12-14T07:53:29;7.60;;;3.93;;
42886;SDS011;29032;56.028;92.904;2023-12-14T07:58:32;10.80;;;4.43;;
42886;SDS011;29032;56.028;92.904;2023-12-14T08:03:35;13.33;;;5.63;;
42886;SDS011;29032;56.028;92.904;2023-12-14T08:08:37;11.97;;;4.80;;
42886;SDS011;29032;56.028;92.904;2023-12-14T08:13:41;14.83;;;5.27;;
42886;SDS011;29032;56.028;92.904;2023-12-14T08:18:43;15.77;;;6.23;;
42886;SDS011;29032;56.028;92.904;2023-12-14T08:23:45;9.67;;;4.77;;
42886;SDS011;29032;56.028;92.904;2023-12-14T08:28:49;12.77;;;6.67;;
42886;SDS011;29032;56.028;92.904;2023-12-14T08:33:51;15.10;;;5.73;;
42886;SDS011;29032;56.028;92.904;2023-12-14T08:38:53;23.07;;;6.83;;
42886;SDS011;29032;56.028;92.904;2023-12-14T08:43:57;20.43;;;8.00;;
42886;SDS011;29032;56.028;92.904;2023-12-14T08:48:59;12.40;;;5.97;;
42886;SDS011;29032;56.028;92.904;2023-12-14T08:54:01;16.13;;;6.63;;
42886;SDS011;29032;56.028;92.904;2023-12-14T08:59:05;20.10;;;7.13;;
42886;SDS011;29032;56.028;92.904;2023-12-14T09:04:07;28.37;;;9.47;;
42886;SDS011;29032;56.028;92.904;2023-12-14T09:09:09;19.63;;;7.40;;
42886;SDS011;29032;56.028;92.904;2023-12-14T09:14:13;20.00;;;8.10;;
42886;SDS011;29032;56.028;92.904;2023-12-14T09:19:15;11.87;;;6.00;;
42886;SDS011;29032;56.028;92.904;2023-12-14T09:24:17;14.73;;;6.07;;
42886;SDS011;29032;56.028;92.904;2023-12-14T09:29:21;13.97;;;6.13;;
42886;SDS011;29032;56.028;92.904;2023-12-14T09:34:23;14.73;;;6.47;;
42886;SDS011;29032;56.028;92.904;2023-12-14T09:39:25;16.30;;;6.13;;
42886;SDS011;29032;56.028;92.904;2023-12-14T09:44:29;14.23;;;5.73;;
42886;SDS011;29032;56.028;92.904;2023-12-14T09:49:32;21.33;;;7.93;;
42886;SDS011;29032;56.028;92.904;2023-12-14T09:54:35;18.33;;;7.50;;
42886;SDS011;29032;56.028;92.904;2023-12-14T09:59:38;22.07;;;8.73;;
42886;SDS011;29032;56.028;92.904;2023-12-14T10:04:42;17.53;;;7.67;;
42886;SDS011;29032;56.028;92.904;2023-12-14T10:09:45;18.93;;;8.17;;
42886;SDS011;29032;56.028;92.904;2023-12-14T10:14:48;27.53;;;10.53;;
42886;SDS011;29032;56.028;92.904;2023-12-14T10:20:02;36.27;;;12.30;;
42886;SDS011;29032;56.028;92.904;2023-12-14T10:25:04;38.33;;;13.83;;
42886;SDS011;29032;56.028;92.904;2023-12-14T10:30:10;43.33;;;16.27;;
42886;SDS011;29032;56.028;92.904;2023-12-14T10:35:14;32.67;;;14.70;;
42886;SDS011;29032;56.028;92.904;2023-12-14T10:40:16;35.87;;;14.13;;
42886;SDS011;29032;56.028;92.904;2023-12-14T10:45:20;37.17;;;15.20;;
42886;SDS011;29032;56.028;92.904;2023-12-14T10:50:27;25.30;;;10.13;;
42886;SDS011;29032;56.028;92.904;2023-12-14T10:55:32;38.53;;;14.20;;
42886;SDS011;29032;56.028;92.904;2023-12-14T11:00:39;52.50;;;17.53;;
42886;SDS011;29032;56.028;92.904;2023-12-14T11:05:44;57.67;;;20.13;;
42886;SDS011;29032;56.028;92.904;2023-12-14T11:10:52;48.77;;;17.87;;
42886;SDS011;29032;56.028;92.904;2023-12-14T11:15:56;42.20;;;17.13;;
42886;SDS011;29032;56.028;92.904;2023-12-14T11:20:59;33.03;;;13.97;;
42886;SDS011;29032;56.028;92.904;2023-12-14T11:26:02;30.70;;;13.17;;
42886;SDS011;29032;56.028;92.904;2023-12-14T11:31:07;26.00;;;11.77;;
42886;SDS011;29032;56.028;92.904;2023-12-14T11:36:11;44.40;;;16.90;;
42886;SDS011;29032;56.028;92.904;2023-12-14T11:41:14;44.57;;;18.53;;
42886;SDS011;29032;56.028;92.904;2023-12-14T11:46:18;40.67;;;15.07;;
42886;SDS011;29032;56.028;92.904;2023-12-14T11:51:20;47.97;;;18.63;;
42886;SDS011;29032;56.028;92.904;2023-12-14T11:56:22;43.17;;;17.10;;
42886;SDS011;29032;56.028;92.904;2023-12-14T12:01:26;50.90;;;19.90;;
42886;SDS011;29032;56.028;92.904;2023-12-14T12:06:28;41.30;;;17.07;;
42886;SDS011;29032;56.028;92.904;2023-12-14T12:11:30;38.60;;;13.40;;
42886;SDS011;29032;56.028;92.904;2023-12-14T12:16:34;29.97;;;12.33;;
42886;SDS011;29032;56.028;92.904;2023-12-14T12:21:36;29.33;;;11.47;;
42886;SDS011;29032;56.028;92.904;2023-12-14T12:26:38;31.17;;;12.70;;
42886;SDS011;29032;56.028;92.904;2023-12-14T12:31:42;27.03;;;11.87;;
42886;SDS011;29032;56.028;92.904;2023-12-14T12:36:44;24.27;;;11.33;;
42886;SDS011;29032;56.028;92.904;2023-12-14T12:41:47;28.67;;;11.97;;
42886;SDS011;29032;56.028;92.904;2023-12-14T12:46:50;33.47;;;13.67;;
42886;SDS011;29032;56.028;92.904;2023-12-14T12:51:53;32.47;;;13.97;;
42886;SDS011;29032;56.028;92.904;2023-12-14T12:56:55;38.77;;;13.97;;
42886;SDS011;29032;56.028;92.904;2023-12-14T13:01:58;22.47;;;11.10;;
42886;SDS011;29032;56.028;92.904;2023-12-14T13:07:01;24.93;;;10.07;;
42886;SDS011;29032;56.028;92.904;2023-12-14T13:12:03;25.63;;;10.30;;
42886;SDS011;29032;56.028;92.904;2023-12-14T13:17:07;29.67;;;12.17;;
42886;SDS011;29032;56.028;92.904;2023-12-14T13:22:10;26.17;;;10.90;;
42886;SDS011;29032;56.028;92.904;2023-12-14T13:27:13;20.83;;;10.27;;
42886;SDS011;29032;56.028;92.904;2023-12-14T13:32:17;21.90;;;10.80;;
42886;SDS011;29032;56.028;92.904;2023-12-14T13:37:19;26.93;;;12.07;;
42886;SDS011;29032;56.028;92.904;2023-12-14T13:42:22;20.13;;;9.50;;
42886;SDS011;29032;56.028;92.904;2023-12-14T13:47:25;26.53;;;12.40;;
42886;SDS011;29032;56.028;92.904;2023-12-14T13:52:28;28.17;;;12.63;;
42886;SDS011;29032;56.028;92.904;2023-12-14T13:57:30;43.00;;;16.67;;
42886;SDS011;29032;56.028;92.904;2023-12-14T14:02:34;32.63;;;14.43;;
42886;SDS011;29032;56.028;92.904;2023-12-14T14:07:36;50.10;;;15.90;;
42886;SDS011;29032;56.028;92.904;2023-12-14T14:12:39;63.10;;;23.37;;
42886;SDS011;29032;56.028;92.904;2023-12-14T14:17:42;50.90;;;21.83;;
42886;SDS011;29032;56.028;92.904;2023-12-14T14:22:44;43.17;;;19.47;;
42886;SDS011;29032;56.028;92.904;2023-12-14T14:27:47;49.07;;;18.43;;
42886;SDS011;29032;56.028;92.904;2023-12-14T14:32:50;56.23;;;20.37;;
42886;SDS011;29032;56.028;92.904;2023-12-14T14:37:53;58.53;;;21.43;;
42886;SDS011;29032;56.028;92.904;2023-12-14T14:42:55;63.13;;;24.83;;
42886;SDS011;29032;56.028;92.904;2023-12-14T14:47:59;62.63;;;23.43;;
42886;SDS011;29032;56.028;92.904;2023-12-14T14:53:01;70.00;;;26.40;;
42886;SDS011;29032;56.028;92.904;2023-12-14T14:58:03;71.40;;;21.40;;
42886;SDS011;29032;56.028;92.904;2023-12-14T15:03:07;62.63;;;22.23;;
42886;SDS011;29032;56.028;92.904;2023-12-14T15:08:09;37.77;;;15.13;;
42886;SDS011;29032;56.028;92.904;2023-12-14T15:13:12;62.80;;;20.27;;
42886;SDS011;29032;56.028;92.904;2023-12-14T15:18:15;59.57;;;20.40;;
42886;SDS011;29032;56.028;92.904;2023-12-14T15:23:18;56.10;;;19.80;;
42886;SDS011;29032;56.028;92.904;2023-12-14T15:28:20;47.63;;;15.90;;
42886;SDS011;29032;56.028;92.904;2023-12-14T15:33:24;37.90;;;14.33;;
42886;SDS011;29032;56.028;92.904;2023-12-14T15:38:26;33.10;;;11.83;;
42886;SDS011;29032;56.028;92.904;2023-12-14T15:43:28;30.20;;;10.47;;
42886;SDS011;29032;56.028;92.904;2023-12-14T15:48:32;28.50;;;10.30;;
42886;SDS011;29032;56.028;92.904;2023-12-14T15:53:34;33.97;;;10.93;;
42886;SDS011;29032;56.028;92.904;2023-12-14T15:58:36;28.10;;;10.23;;
42886;SDS011;29032;56.028;92.904;2023-12-14T16:03:40;21.17;;;8.70;;
42886;SDS011;29032;56.028;92.904;2023-12-14T16:08:42;24.37;;;10.00;;
42886;SDS011;29032;56.028;92.904;2023-12-14T16:13:45;34.50;;;11.93;;
42886;SDS011;29032;56.028;92.904;2023-12-14T16:18:49;26.77;;;9.30;;
42886;SDS011;29032;56.028;92.904;2023-12-14T16:23:51;25.57;;;9.40;;
42886;SDS011;29032;56.028;92.904;2023-12-14T16:28:53;24.33;;;8.47;;
42886;SDS011;29032;56.028;92.904;2023-12-14T16:33:57;17.27;;;7.70;;
42886;SDS011;29032;56.028;92.904;2023-12-14T16:38:59;25.23;;;9.33;;
42886;SDS011;29032;56.028;92.904;2023-12-14T16:44:01;29.07;;;9.50;;
42886;SDS011;29032;56.028;92.904;2023-12-14T16:49:05;39.33;;;14.07;;
42886;SDS011;29032;56.028;92.904;2023-12-14T16:54:07;24.20;;;10.00;;
42886;SDS011;29032;56.028;92.904;2023-12-14T16:59:09;26.77;;;10.57;;
42886;SDS011;29032;56.028;92.904;2023-12-14T17:04:13;26.30;;;9.07;;
42886;SDS011;29032;56.028;92.904;2023-12-14T17:09:15;24.77;;;8.73;;
42886;SDS011;29032;56.028;92.904;2023-12-14T17:14:18;20.33;;;8.40;;
42886;SDS011;29032;56.028;92.904;2023-12-14T17:19:21;15.70;;;7.33;;
42886;SDS011;29032;56.028;92.904;2023-12-14T17:24:24;17.63;;;7.03;;
42886;SDS011;29032;56.028;92.904;2023-12-14T17:29:26;22.30;;;8.10;;
42886;SDS011;29032;56.028;92.904;2023-12-14T17:34:30;36.00;;;10.67;;
42886;SDS011;29032;56.028;92.904;2023-12-14T17:39:32;28.47;;;10.30;;
42886;SDS011;29032;56.028;92.904;2023-12-14T17:44:34;38.00;;;13.07;;
42886;SDS011;29032;56.028;92.904;2023-12-14T17:49:38;46.93;;;15.90;;
42886;SDS011;29032;56.028;92.904;2023-12-14T17:54:40;41.83;;;15.13;;
42886;SDS011;29032;56.028;92.904;2023-12-14T17:59:43;31.13;;;13.40;;
42886;SDS011;29032;56.028;92.904;2023-12-14T18:04:46;36.17;;;13.67;;
42886;SDS011;29032;56.028;92.904;2023-12-14T18:09:48;34.40;;;12.33;;
42886;SDS011;29032;56.028;92.904;2023-12-14T18:14:51;32.43;;;13.13;;
42886;SDS011;29032;56.028;92.904;2023-12-14T18:19:54;35.40;;;12.67;;
42886;SDS011;29032;56.028;92.904;2023-12-14T18:24:56;41.13;;;13.87;;
42886;SDS011;29032;56.028;92.904;2023-12-14T18:29:59;25.63;;;9.80;;
42886;SDS011;29032;56.028;92.904;2023-12-14T18:35:03;35.83;;;12.73;;
42886;SDS011;29032;56.028;92.904;2023-12-14T18:40:06;26.97;;;10.03;;
42886;SDS011;29032;56.028;92.904;2023-12-14T18:45:09;33.60;;;10.27;;
42886;SDS011;29032;56.028;92.904;2023-12-14T18:50:13;27.23;;;9.30;;
42886;SDS011;29032;56.028;92.904;2023-12-14T18:55:15;29.00;;;8.23;;
42886;SDS011;29032;56.028;92.904;2023-12-14T19:00:18;25.20;;;8.07;;
42886;SDS011;29032;56.028;92.904;2023-12-14T19:05:22;21.00;;;8.07;;
42886;SDS011;29032;56.028;92.904;2023-12-14T19:10:24;21.47;;;8.53;;
42886;SDS011;29032;56.028;92.904;2023-12-14T19:15:26;22.83;;;7.67;;
42886;SDS011;29032;56.028;92.904;2023-12-14T19:20:30;18.13;;;7.53;;
42886;SDS011;29032;56.028;92.904;2023-12-14T19:25:32;23.93;;;7.73;;
42886;SDS011;29032;56.028;92.904;2023-12-14T19:30:34;22.10;;;8.13;;
42886;SDS011;29032;56.028;92.904;2023-12-14T19:35:38;18.97;;;6.47;;
42886;SDS011;29032;56.028;92.904;2023-12-14T19:40:40;19.97;;;6.33;;
42886;SDS011;29032;56.028;92.904;2023-12-14T19:45:43;14.93;;;6.70;;
42886;SDS011;29032;56.028;92.904;2023-12-14T19:50:46;12.20;;;5.83;;
42886;SDS011;29032;56.028;92.904;2023-12-14T19:55:48;16.57;;;5.80;;
42886;SDS011;29032;56.028;92.904;2023-12-14T20:00:51;16.17;;;5.73;;
42886;SDS011;29032;56.028;92.904;2023-12-14T20:05:54;18.07;;;5.90;;
42886;SDS011;29032;56.028;92.904;2023-12-14T20:10:56;15.43;;;6.13;;
42886;SDS011;29032;56.028;92.904;2023-12-14T20:15:59;12.17;;;4.90;;
42886;SDS011;29032;56.028;92.904;2023-12-14T20:21:02;21.77;;;6.67;;
42886;SDS011;29032;56.028;92.904;2023-12-14T20:26:05;22.93;;;6.83;;
42886;SDS011;29032;56.028;92.904;2023-12-14T20:31:07;20.80;;;7.13;;
42886;SDS011;29032;56.028;92.904;2023-12-14T20:36:11;12.43;;;5.67;;
42886;SDS011;29032;56.028;92.904;2023-12-14T20:41:13;16.43;;;5.70;;
42886;SDS011;29032;56.028;92.904;2023-12-14T20:46:17;19.93;;;6.37;;
42886;SDS011;29032;56.028;92.904;2023-12-14T20:51:20;11.07;;;4.77;;
42886;SDS011;29032;56.028;92.904;2023-12-14T20:56:22;16.23;;;7.07;;
42886;SDS011;29032;56.028;92.904;2023-12-14T21:01:28;14.77;;;6.73;;
42886;SDS011;29032;56.028;92.904;2023-12-14T21:06:32;17.92;;;6.85;;
42886;SDS011;29032;56.028;92.904;2023-12-14T21:11:34;16.63;;;6.93;;
42886;SDS011;29032;56.028;92.904;2023-12-14T21:16:36;18.83;;;6.73;;
42886;SDS011;29032;56.028;92.904;2023-12-14T21:21:40;24.73;;;7.57;;
42886;SDS011;29032;56.028;92.904;2023-12-14T21:26:42;18.97;;;6.37;;
42886;SDS011;29032;56.028;92.904;2023-12-14T21:31:44;14.83;;;6.00;;
42886;SDS011;29032;56.028;92.904;2023-12-14T21:36:48;12.93;;;6.30;;
42886;SDS011;29032;56.028;92.904;2023-12-14T21:41:51;12.77;;;6.00;;
42886;SDS011;29032;56.028;92.904;2023-12-14T21:46:53;17.50;;;6.93;;
42886;SDS011;29032;56.028;92.904;2023-12-14T21:51:57;20.03;;;8.57;;
42886;SDS011;29032;56.028;92.904;2023-12-14T21:56:59;20.17;;;8.13;;
42886;SDS011;29032;56.028;92.904;2023-12-14T22:02:01;17.40;;;6.77;;
42886;SDS011;29032;56.028;92.904;2023-12-14T22:07:05;17.10;;;7.10;;
42886;SDS011;29032;56.028;92.904;2023-12-14T22:12:07;18.20;;;7.20;;
42886;SDS011;29032;56.028;92.904;2023-12-14T22:17:09;18.83;;;5.90;;
42886;SDS011;29032;56.028;92.904;2023-12-14T22:22:13;19.83;;;6.40;;
42886;SDS011;29032;56.028;92.904;2023-12-14T22:27:15;11.50;;;5.60;;
42886;SDS011;29032;56.028;92.904;2023-12-14T22:32:18;17.97;;;6.43;;
42886;SDS011;29032;56.028;92.904;2023-12-14T22:37:21;20.07;;;6.50;;
42886;SDS011;29032;56.028;92.904;2023-12-14T22:42:23;17.63;;;6.90;;
42886;SDS011;29032;56.028;92.904;2023-12-14T22:47:26;19.47;;;6.67;;
42886;SDS011;29032;56.028;92.904;2023-12-14T22:52:29;14.03;;;6.17;;
42886;SDS011;29032;56.028;92.904;2023-12-14T22:57:31;24.03;;;8.73;;
42886;SDS011;29032;56.028;92.904;2023-12-14T23:02:34;19.60;;;8.13;;
42886;SDS011;29032;56.028;92.904;2023-12-14T23:07:39;18.27;;;7.23;;
42886;SDS011;29032;56.028;92.904;2023-12-14T23:12:41;15.47;;;6.37;;
42886;SDS011;29032;56.028;92.904;2023-12-14T23:17:44;14.77;;;5.57;;
42886;SDS011;29032;56.028;92.904;2023-12-14T23:22:48;20.83;;;6.73;;
42886;SDS011;29032;56.028;92.904;2023-12-14T23:27:50;21.50;;;6.87;;
42886;SDS011;29032;56.028;92.904;2023-12-14T23:32:52;18.07;;;6.23;;
42886;SDS011;29032;56.028;92.904;2023-12-14T23:37:56;15.30;;;5.50;;
42886;SDS011;29032;56.028;92.904;2023-12-14T23:42:58;16.63;;;6.00;;
42886;SDS011;29032;56.028;92.904;2023-12-14T23:48:00;16.20;;;6.17;;
42886;SDS011;29032;56.028;92.904;2023-12-14T23:53:04;12.53;;;5.53;;
42886;SDS011;29032;56.028;92.904;2023-12-14T23:58:06;16.40;;;6.60;;
